sensor_id;sensor_type;location;lat;lon;timestamp;P1;durP1;ratioP1;P2;durP2;ratioP2
40314;SDS011;26021;45.640;11.302;2023-03-14T00:00:55;34.35;;;26.02;;
40314;SDS011;26021;45.640;11.302;2023-03-14T00:03:20;33.05;;;26.88;;
40314;SDS011;26021;45.640;11.302;2023-03-14T00:05:46;35.00;;;25.65;;
40314;SDS011;26021;45.640;11.302;2023-03-14T00:08:11;32.83;;;26.73;;
40314;SDS011;26021;45.640;11.302;2023-03-14T00:10:37;35.25;;;27.30;;
40314;SDS011;26021;45.640;11.302;2023-03-14T00:13:04;34.88;;;26.10;;
40314;SDS011;26021;45.640;11.302;2023-03-14T00:15:29;39.00;;;28.70;;
40314;SDS011;26021;45.640;11.302;2023-03-14T00:17:58;33.53;;;27.55;;
40314;SDS011;26021;45.640;11.302;2023-03-14T00:20:23;35.20;;;27.85;;
40314;SDS011;26021;45.640;11.302;2023-03-14T00:22:49;32.72;;;27.02;;
40314;SDS011;26021;45.640;11.302;2023-03-14T00:25:14;33.25;;;27.15;;
40314;SDS011;26021;45.640;11.302;2023-03-14T00:27:39;35.90;;;25.92;;
40314;SDS011;26021;45.640;11.302;2023-03-14T00:30:05;37.10;;;26.52;;
40314;SDS011;26021;45.640;11.302;2023-03-14T00:32:32;31.95;;;26.48;;
40314;SDS011;26021;45.640;11.302;2023-03-14T00:34:58;36.50;;;26.92;;
40314;SDS011;26021;45.640;11.302;2023-03-14T00:37:24;34.92;;;28.13;;
40314;SDS011;26021;45.640;11.302;2023-03-14T00:39:50;31.70;;;27.00;;
40314;SDS011;26021;45.640;11.302;2023-03-14T00:42:16;35.90;;;28.52;;
40314;SDS011;26021;45.640;11.302;2023-03-14T00:44:43;35.13;;;27.75;;
40314;SDS011;26021;45.640;11.302;2023-03-14T00:47:09;38.30;;;27.30;;
40314;SDS011;26021;45.640;11.302;2023-03-14T00:49:34;37.65;;;29.55;;
40314;SDS011;26021;45.640;11.302;2023-03-14T00:51:59;36.38;;;28.50;;
40314;SDS011;26021;45.640;11.302;2023-03-14T00:54:25;39.40;;;29.80;;
40314;SDS011;26021;45.640;11.302;2023-03-14T00:56:50;39.65;;;28.30;;
40314;SDS011;26021;45.640;11.302;2023-03-14T00:59:16;38.15;;;29.48;;
40314;SDS011;26021;45.640;11.302;2023-03-14T01:01:42;39.05;;;29.55;;
40314;SDS011;26021;45.640;11.302;2023-03-14T01:04:08;38.75;;;30.17;;
40314;SDS011;26021;45.640;11.302;2023-03-14T01:06:33;39.38;;;30.23;;
40314;SDS011;26021;45.640;11.302;2023-03-14T01:08:59;38.92;;;30.95;;
40314;SDS011;26021;45.640;11.302;2023-03-14T01:11:26;37.92;;;30.35;;
40314;SDS011;26021;45.640;11.302;2023-03-14T01:13:53;43.72;;;31.45;;
40314;SDS011;26021;45.640;11.302;2023-03-14T01:16:19;40.40;;;30.55;;
40314;SDS011;26021;45.640;11.302;2023-03-14T01:18:47;40.65;;;31.65;;
40314;SDS011;26021;45.640;11.302;2023-03-14T01:21:14;38.95;;;30.52;;
40314;SDS011;26021;45.640;11.302;2023-03-14T01:23:42;38.47;;;29.65;;
40314;SDS011;26021;45.640;11.302;2023-03-14T01:26:09;38.80;;;30.33;;
40314;SDS011;26021;45.640;11.302;2023-03-14T01:28:36;36.53;;;28.73;;
40314;SDS011;26021;45.640;11.302;2023-03-14T01:31:02;37.83;;;29.38;;
40314;SDS011;26021;45.640;11.302;2023-03-14T01:33:29;35.88;;;30.13;;
40314;SDS011;26021;45.640;11.302;2023-03-14T01:35:54;41.38;;;31.73;;
40314;SDS011;26021;45.640;11.302;2023-03-14T01:38:19;40.22;;;30.60;;
40314;SDS011;26021;45.640;11.302;2023-03-14T01:40:45;39.10;;;31.88;;
40314;SDS011;26021;45.640;11.302;2023-03-14T01:43:17;39.15;;;30.58;;
40314;SDS011;26021;45.640;11.302;2023-03-14T01:48:40;38.60;;;32.72;;
40314;SDS011;26021;45.640;11.302;2023-03-14T01:51:14;40.78;;;31.48;;
40314;SDS011;26021;45.640;11.302;2023-03-14T01:53:44;38.85;;;30.23;;
40314;SDS011;26021;45.640;11.302;2023-03-14T01:56:12;41.95;;;31.55;;
40314;SDS011;26021;45.640;11.302;2023-03-14T01:58:40;44.08;;;31.58;;
40314;SDS011;26021;45.640;11.302;2023-03-14T02:01:10;39.78;;;30.55;;
40314;SDS011;26021;45.640;11.302;2023-03-14T02:03:38;39.05;;;30.90;;
40314;SDS011;26021;45.640;11.302;2023-03-14T02:06:12;38.60;;;30.67;;
40314;SDS011;26021;45.640;11.302;2023-03-14T02:08:42;36.53;;;30.10;;
40314;SDS011;26021;45.640;11.302;2023-03-14T02:11:12;36.40;;;30.23;;
40314;SDS011;26021;45.640;11.302;2023-03-14T02:13:38;35.15;;;28.88;;
40314;SDS011;26021;45.640;11.302;2023-03-14T02:16:04;36.05;;;29.73;;
40314;SDS011;26021;45.640;11.302;2023-03-14T02:18:29;40.65;;;31.33;;
40314;SDS011;26021;45.640;11.302;2023-03-14T02:21:06;38.80;;;28.92;;
40314;SDS011;26021;45.640;11.302;2023-03-14T02:23:51;35.22;;;28.10;;
40314;SDS011;26021;45.640;11.302;2023-03-14T02:26:29;39.80;;;31.45;;
40314;SDS011;26021;45.640;11.302;2023-03-14T02:29:01;35.38;;;28.00;;
40314;SDS011;26021;45.640;11.302;2023-03-14T02:31:27;40.65;;;29.38;;
40314;SDS011;26021;45.640;11.302;2023-03-14T02:33:52;38.50;;;30.48;;
40314;SDS011;26021;45.640;11.302;2023-03-14T02:36:18;40.40;;;31.80;;
40314;SDS011;26021;45.640;11.302;2023-03-14T02:41:44;35.55;;;28.08;;
40314;SDS011;26021;45.640;11.302;2023-03-14T02:44:11;34.97;;;28.30;;
40314;SDS011;26021;45.640;11.302;2023-03-14T02:46:37;30.00;;;25.75;;
40314;SDS011;26021;45.640;11.302;2023-03-14T02:49:03;34.22;;;25.80;;
40314;SDS011;26021;45.640;11.302;2023-03-14T02:51:32;30.58;;;26.27;;
40314;SDS011;26021;45.640;11.302;2023-03-14T02:53:58;33.05;;;25.00;;
40314;SDS011;26021;45.640;11.302;2023-03-14T02:56:24;31.45;;;24.95;;
40314;SDS011;26021;45.640;11.302;2023-03-14T02:58:49;30.50;;;23.83;;
40314;SDS011;26021;45.640;11.302;2023-03-14T03:01:15;33.85;;;25.27;;
40314;SDS011;26021;45.640;11.302;2023-03-14T03:03:41;33.22;;;25.33;;
40314;SDS011;26021;45.640;11.302;2023-03-14T03:06:06;32.83;;;26.25;;
40314;SDS011;26021;45.640;11.302;2023-03-14T03:08:32;33.78;;;26.83;;
40314;SDS011;26021;45.640;11.302;2023-03-14T03:10:58;34.63;;;26.73;;
40314;SDS011;26021;45.640;11.302;2023-03-14T03:13:24;31.70;;;27.23;;
40314;SDS011;26021;45.640;11.302;2023-03-14T03:15:49;37.50;;;27.98;;
40314;SDS011;26021;45.640;11.302;2023-03-14T03:18:15;32.17;;;26.67;;
40314;SDS011;26021;45.640;11.302;2023-03-14T03:20:40;29.73;;;24.70;;
40314;SDS011;26021;45.640;11.302;2023-03-14T03:23:06;29.48;;;23.55;;
40314;SDS011;26021;45.640;11.302;2023-03-14T03:25:31;30.90;;;25.63;;
40314;SDS011;26021;45.640;11.302;2023-03-14T03:27:57;35.65;;;28.10;;
40314;SDS011;26021;45.640;11.302;2023-03-14T03:30:23;34.45;;;26.98;;
40314;SDS011;26021;45.640;11.302;2023-03-14T03:32:48;36.22;;;28.08;;
40314;SDS011;26021;45.640;11.302;2023-03-14T03:35:14;34.22;;;27.90;;
40314;SDS011;26021;45.640;11.302;2023-03-14T03:37:39;35.50;;;28.08;;
40314;SDS011;26021;45.640;11.302;2023-03-14T03:40:05;35.20;;;28.42;;
40314;SDS011;26021;45.640;11.302;2023-03-14T03:42:31;34.45;;;27.83;;
40314;SDS011;26021;45.640;11.302;2023-03-14T03:44:58;35.80;;;28.27;;
40314;SDS011;26021;45.640;11.302;2023-03-14T03:47:24;33.53;;;27.48;;
40314;SDS011;26021;45.640;11.302;2023-03-14T03:49:50;34.40;;;27.15;;
40314;SDS011;26021;45.640;11.302;2023-03-14T03:52:15;32.25;;;26.65;;
40314;SDS011;26021;45.640;11.302;2023-03-14T03:54:41;31.98;;;26.15;;
40314;SDS011;26021;45.640;11.302;2023-03-14T03:57:06;28.75;;;24.83;;
40314;SDS011;26021;45.640;11.302;2023-03-14T03:59:32;32.45;;;24.17;;
40314;SDS011;26021;45.640;11.302;2023-03-14T04:01:57;29.73;;;23.85;;
40314;SDS011;26021;45.640;11.302;2023-03-14T04:04:22;33.97;;;23.40;;
40314;SDS011;26021;45.640;11.302;2023-03-14T04:06:48;31.13;;;23.10;;
40314;SDS011;26021;45.640;11.302;2023-03-14T04:09:13;28.95;;;23.17;;
40314;SDS011;26021;45.640;11.302;2023-03-14T04:11:39;32.15;;;24.02;;
40314;SDS011;26021;45.640;11.302;2023-03-14T04:14:05;27.92;;;23.10;;
40314;SDS011;26021;45.640;11.302;2023-03-14T04:16:31;26.67;;;23.75;;
40314;SDS011;26021;45.640;11.302;2023-03-14T04:18:56;31.55;;;25.50;;
40314;SDS011;26021;45.640;11.302;2023-03-14T04:21:22;36.60;;;27.15;;
40314;SDS011;26021;45.640;11.302;2023-03-14T04:23:48;31.00;;;26.33;;
40314;SDS011;26021;45.640;11.302;2023-03-14T04:26:14;30.85;;;25.05;;
40314;SDS011;26021;45.640;11.302;2023-03-14T04:28:39;29.25;;;23.73;;
40314;SDS011;26021;45.640;11.302;2023-03-14T04:31:08;33.60;;;23.83;;
40314;SDS011;26021;45.640;11.302;2023-03-14T04:33:35;33.40;;;24.98;;
40314;SDS011;26021;45.640;11.302;2023-03-14T04:36:02;28.58;;;24.33;;
40314;SDS011;26021;45.640;11.302;2023-03-14T04:38:28;35.00;;;26.60;;
40314;SDS011;26021;45.640;11.302;2023-03-14T04:40:54;33.47;;;25.95;;
40314;SDS011;26021;45.640;11.302;2023-03-14T04:43:19;31.83;;;24.33;;
40314;SDS011;26021;45.640;11.302;2023-03-14T04:45:44;28.48;;;22.15;;
40314;SDS011;26021;45.640;11.302;2023-03-14T04:48:10;31.42;;;23.25;;
40314;SDS011;26021;45.640;11.302;2023-03-14T04:50:35;28.40;;;22.15;;
40314;SDS011;26021;45.640;11.302;2023-03-14T04:53:01;28.73;;;23.98;;
40314;SDS011;26021;45.640;11.302;2023-03-14T04:55:26;25.02;;;21.52;;
40314;SDS011;26021;45.640;11.302;2023-03-14T04:57:52;27.38;;;20.77;;
40314;SDS011;26021;45.640;11.302;2023-03-14T05:00:20;25.75;;;22.90;;
40314;SDS011;26021;45.640;11.302;2023-03-14T05:02:54;28.38;;;23.77;;
40314;SDS011;26021;45.640;11.302;2023-03-14T05:05:19;30.20;;;23.15;;
40314;SDS011;26021;45.640;11.302;2023-03-14T05:07:45;30.70;;;23.95;;
40314;SDS011;26021;45.640;11.302;2023-03-14T05:10:10;30.85;;;25.20;;
40314;SDS011;26021;45.640;11.302;2023-03-14T05:12:36;30.67;;;25.48;;
40314;SDS011;26021;45.640;11.302;2023-03-14T05:15:01;30.77;;;24.63;;
40314;SDS011;26021;45.640;11.302;2023-03-14T05:17:26;28.42;;;23.80;;
40314;SDS011;26021;45.640;11.302;2023-03-14T05:19:52;29.00;;;22.48;;
40314;SDS011;26021;45.640;11.302;2023-03-14T05:22:17;26.50;;;22.27;;
40314;SDS011;26021;45.640;11.302;2023-03-14T05:24:43;26.73;;;22.52;;
40314;SDS011;26021;45.640;11.302;2023-03-14T05:27:08;28.42;;;23.92;;
40314;SDS011;26021;45.640;11.302;2023-03-14T05:29:33;28.45;;;23.38;;
40314;SDS011;26021;45.640;11.302;2023-03-14T05:31:59;30.90;;;24.23;;
40314;SDS011;26021;45.640;11.302;2023-03-14T05:34:24;30.45;;;24.17;;
40314;SDS011;26021;45.640;11.302;2023-03-14T05:36:50;31.70;;;23.25;;
40314;SDS011;26021;45.640;11.302;2023-03-14T05:39:15;29.45;;;23.85;;
40314;SDS011;26021;45.640;11.302;2023-03-14T05:41:40;32.03;;;23.45;;
40314;SDS011;26021;45.640;11.302;2023-03-14T05:44:06;30.45;;;24.25;;
40314;SDS011;26021;45.640;11.302;2023-03-14T05:46:31;28.70;;;23.00;;
40314;SDS011;26021;45.640;11.302;2023-03-14T05:48:59;28.55;;;22.73;;
40314;SDS011;26021;45.640;11.302;2023-03-14T05:51:25;25.92;;;21.98;;
40314;SDS011;26021;45.640;11.302;2023-03-14T05:53:51;28.73;;;22.52;;
40314;SDS011;26021;45.640;11.302;2023-03-14T05:56:16;25.80;;;21.17;;
40314;SDS011;26021;45.640;11.302;2023-03-14T05:58:41;32.75;;;21.55;;
40314;SDS011;26021;45.640;11.302;2023-03-14T06:01:07;29.00;;;22.85;;
40314;SDS011;26021;45.640;11.302;2023-03-14T06:03:33;28.13;;;23.90;;
40314;SDS011;26021;45.640;11.302;2023-03-14T06:05:58;31.75;;;24.17;;
40314;SDS011;26021;45.640;11.302;2023-03-14T06:08:24;29.33;;;22.13;;
40314;SDS011;26021;45.640;11.302;2023-03-14T06:10:50;28.83;;;22.55;;
40314;SDS011;26021;45.640;11.302;2023-03-14T06:13:15;40.10;;;24.25;;
40314;SDS011;26021;45.640;11.302;2023-03-14T06:15:41;32.75;;;23.08;;
40314;SDS011;26021;45.640;11.302;2023-03-14T06:18:07;37.17;;;25.08;;
40314;SDS011;26021;45.640;11.302;2023-03-14T06:20:32;34.33;;;26.08;;
40314;SDS011;26021;45.640;11.302;2023-03-14T06:23:00;40.22;;;26.58;;
40314;SDS011;26021;45.640;11.302;2023-03-14T06:25:25;33.13;;;24.50;;
40314;SDS011;26021;45.640;11.302;2023-03-14T06:27:50;28.27;;;23.65;;
40314;SDS011;26021;45.640;11.302;2023-03-14T06:30:16;35.90;;;25.30;;
40314;SDS011;26021;45.640;11.302;2023-03-14T06:32:42;34.28;;;25.73;;
40314;SDS011;26021;45.640;11.302;2023-03-14T06:35:07;33.00;;;26.02;;
40314;SDS011;26021;45.640;11.302;2023-03-14T06:37:33;40.88;;;30.48;;
40314;SDS011;26021;45.640;11.302;2023-03-14T06:39:58;38.97;;;30.67;;
40314;SDS011;26021;45.640;11.302;2023-03-14T06:42:24;40.08;;;29.60;;
40314;SDS011;26021;45.640;11.302;2023-03-14T06:44:49;40.08;;;31.48;;
40314;SDS011;26021;45.640;11.302;2023-03-14T06:47:15;40.90;;;30.73;;
40314;SDS011;26021;45.640;11.302;2023-03-14T06:49:40;44.97;;;31.70;;
40314;SDS011;26021;45.640;11.302;2023-03-14T06:52:05;40.28;;;30.80;;
40314;SDS011;26021;45.640;11.302;2023-03-14T06:54:31;40.22;;;30.10;;
40314;SDS011;26021;45.640;11.302;2023-03-14T06:56:56;39.55;;;30.73;;
40314;SDS011;26021;45.640;11.302;2023-03-14T06:59:22;43.40;;;31.23;;
40314;SDS011;26021;45.640;11.302;2023-03-14T07:01:47;37.85;;;29.63;;
40314;SDS011;26021;45.640;11.302;2023-03-14T07:04:16;37.88;;;29.65;;
40314;SDS011;26021;45.640;11.302;2023-03-14T07:06:41;37.70;;;30.08;;
40314;SDS011;26021;45.640;11.302;2023-03-14T07:09:09;39.13;;;30.33;;
40314;SDS011;26021;45.640;11.302;2023-03-14T07:11:36;40.78;;;28.77;;
40314;SDS011;26021;45.640;11.302;2023-03-14T07:14:01;38.15;;;27.52;;
40314;SDS011;26021;45.640;11.302;2023-03-14T07:16:27;36.00;;;27.63;;
40314;SDS011;26021;45.640;11.302;2023-03-14T07:18:56;41.60;;;27.58;;
40314;SDS011;26021;45.640;11.302;2023-03-14T07:21:22;44.85;;;28.67;;
40314;SDS011;26021;45.640;11.302;2023-03-14T07:23:47;38.85;;;29.30;;
40314;SDS011;26021;45.640;11.302;2023-03-14T07:26:13;41.25;;;30.60;;
40314;SDS011;26021;45.640;11.302;2023-03-14T07:28:38;40.20;;;29.52;;
40314;SDS011;26021;45.640;11.302;2023-03-14T07:31:04;41.88;;;31.02;;
40314;SDS011;26021;45.640;11.302;2023-03-14T07:33:29;43.22;;;30.20;;
40314;SDS011;26021;45.640;11.302;2023-03-14T07:35:55;45.88;;;33.75;;
40314;SDS011;26021;45.640;11.302;2023-03-14T07:38:21;49.00;;;36.50;;
40314;SDS011;26021;45.640;11.302;2023-03-14T07:40:46;52.20;;;36.72;;
40314;SDS011;26021;45.640;11.302;2023-03-14T07:43:11;49.67;;;37.45;;
40314;SDS011;26021;45.640;11.302;2023-03-14T07:45:38;46.15;;;37.60;;
40314;SDS011;26021;45.640;11.302;2023-03-14T07:48:04;51.47;;;38.08;;
40314;SDS011;26021;45.640;11.302;2023-03-14T07:50:29;55.45;;;40.60;;
40314;SDS011;26021;45.640;11.302;2023-03-14T07:52:55;61.05;;;41.00;;
40314;SDS011;26021;45.640;11.302;2023-03-14T07:55:20;62.35;;;44.15;;
40314;SDS011;26021;45.640;11.302;2023-03-14T07:57:46;64.28;;;44.67;;
40314;SDS011;26021;45.640;11.302;2023-03-14T08:00:11;57.45;;;38.67;;
40314;SDS011;26021;45.640;11.302;2023-03-14T08:02:39;49.53;;;38.33;;
40314;SDS011;26021;45.640;11.302;2023-03-14T08:05:05;49.30;;;35.15;;
40314;SDS011;26021;45.640;11.302;2023-03-14T08:07:31;47.35;;;36.83;;
40314;SDS011;26021;45.640;11.302;2023-03-14T08:09:56;45.35;;;34.72;;
40314;SDS011;26021;45.640;11.302;2023-03-14T08:12:21;50.13;;;35.45;;
40314;SDS011;26021;45.640;11.302;2023-03-14T08:14:47;49.40;;;35.75;;
40314;SDS011;26021;45.640;11.302;2023-03-14T08:17:12;48.58;;;37.28;;
40314;SDS011;26021;45.640;11.302;2023-03-14T08:19:38;49.08;;;35.97;;
40314;SDS011;26021;45.640;11.302;2023-03-14T08:22:04;46.22;;;35.15;;
40314;SDS011;26021;45.640;11.302;2023-03-14T08:24:29;48.13;;;35.53;;
40314;SDS011;26021;45.640;11.302;2023-03-14T08:26:55;48.70;;;35.88;;
40314;SDS011;26021;45.640;11.302;2023-03-14T08:29:20;46.33;;;35.97;;
40314;SDS011;26021;45.640;11.302;2023-03-14T08:31:46;43.55;;;34.47;;
40314;SDS011;26021;45.640;11.302;2023-03-14T08:34:11;38.45;;;32.08;;
40314;SDS011;26021;45.640;11.302;2023-03-14T08:36:36;42.10;;;31.92;;
40314;SDS011;26021;45.640;11.302;2023-03-14T08:39:02;39.85;;;30.63;;
40314;SDS011;26021;45.640;11.302;2023-03-14T08:41:29;35.88;;;29.42;;
40314;SDS011;26021;45.640;11.302;2023-03-14T08:43:54;38.33;;;30.23;;
40314;SDS011;26021;45.640;11.302;2023-03-14T08:46:20;33.33;;;28.23;;
40314;SDS011;26021;45.640;11.302;2023-03-14T08:48:45;37.55;;;28.90;;
40314;SDS011;26021;45.640;11.302;2023-03-14T08:51:11;35.63;;;29.40;;
40314;SDS011;26021;45.640;11.302;2023-03-14T08:53:38;39.35;;;32.40;;
40314;SDS011;26021;45.640;11.302;2023-03-14T08:56:05;38.10;;;31.52;;
40314;SDS011;26021;45.640;11.302;2023-03-14T08:58:32;39.70;;;30.23;;
40314;SDS011;26021;45.640;11.302;2023-03-14T09:00:58;40.47;;;31.05;;
40314;SDS011;26021;45.640;11.302;2023-03-14T09:03:24;40.22;;;29.92;;
40314;SDS011;26021;45.640;11.302;2023-03-14T09:05:50;39.10;;;30.00;;
40314;SDS011;26021;45.640;11.302;2023-03-14T09:08:16;39.55;;;31.15;;
40314;SDS011;26021;45.640;11.302;2023-03-14T09:10:42;36.50;;;30.45;;
40314;SDS011;26021;45.640;11.302;2023-03-14T09:13:07;43.55;;;32.45;;
40314;SDS011;26021;45.640;11.302;2023-03-14T09:15:32;40.10;;;31.08;;
40314;SDS011;26021;45.640;11.302;2023-03-14T09:17:58;41.38;;;31.60;;
40314;SDS011;26021;45.640;11.302;2023-03-14T09:20:24;39.00;;;30.52;;
40314;SDS011;26021;45.640;11.302;2023-03-14T09:22:49;37.92;;;29.70;;
40314;SDS011;26021;45.640;11.302;2023-03-14T09:25:15;37.35;;;28.60;;
40314;SDS011;26021;45.640;11.302;2023-03-14T09:27:40;37.25;;;30.15;;
40314;SDS011;26021;45.640;11.302;2023-03-14T09:30:06;38.17;;;30.38;;
40314;SDS011;26021;45.640;11.302;2023-03-14T09:32:32;36.05;;;29.67;;
40314;SDS011;26021;45.640;11.302;2023-03-14T09:34:58;38.08;;;30.52;;
40314;SDS011;26021;45.640;11.302;2023-03-14T09:37:23;67.15;;;53.90;;
40314;SDS011;26021;45.640;11.302;2023-03-14T09:39:49;44.60;;;34.10;;
40314;SDS011;26021;45.640;11.302;2023-03-14T09:42:16;37.80;;;31.88;;
40314;SDS011;26021;45.640;11.302;2023-03-14T09:44:55;42.97;;;32.33;;
40314;SDS011;26021;45.640;11.302;2023-03-14T09:47:24;39.38;;;29.77;;
40314;SDS011;26021;45.640;11.302;2023-03-14T09:49:51;38.72;;;30.05;;
40314;SDS011;26021;45.640;11.302;2023-03-14T09:57:24;38.22;;;30.13;;
40314;SDS011;26021;45.640;11.302;2023-03-14T09:59:51;36.92;;;29.88;;
40314;SDS011;26021;45.640;11.302;2023-03-14T10:02:23;41.58;;;32.03;;
40314;SDS011;26021;45.640;11.302;2023-03-14T10:04:51;39.75;;;31.52;;
40314;SDS011;26021;45.640;11.302;2023-03-14T10:07:28;37.55;;;32.38;;
40314;SDS011;26021;45.640;11.302;2023-03-14T10:09:55;41.28;;;33.78;;
40314;SDS011;26021;45.640;11.302;2023-03-14T10:12:30;39.38;;;33.58;;
40314;SDS011;26021;45.640;11.302;2023-03-14T10:15:00;45.35;;;35.67;;
40314;SDS011;26021;45.640;11.302;2023-03-14T10:17:28;40.50;;;33.58;;
40314;SDS011;26021;45.640;11.302;2023-03-14T10:19:58;40.45;;;31.98;;
40314;SDS011;26021;45.640;11.302;2023-03-14T10:22:26;34.15;;;29.17;;
40314;SDS011;26021;45.640;11.302;2023-03-14T10:24:55;37.22;;;30.42;;
40314;SDS011;26021;45.640;11.302;2023-03-14T10:27:30;36.40;;;30.65;;
40314;SDS011;26021;45.640;11.302;2023-03-14T10:30:04;38.35;;;29.90;;
40314;SDS011;26021;45.640;11.302;2023-03-14T10:32:34;35.78;;;29.73;;
40314;SDS011;26021;45.640;11.302;2023-03-14T10:35:06;36.30;;;29.92;;
40314;SDS011;26021;45.640;11.302;2023-03-14T10:37:57;36.55;;;30.65;;
40314;SDS011;26021;45.640;11.302;2023-03-14T10:40:40;34.25;;;30.48;;
40314;SDS011;26021;45.640;11.302;2023-03-14T10:43:17;33.45;;;27.35;;
40314;SDS011;26021;45.640;11.302;2023-03-14T10:46:08;29.63;;;24.25;;
40314;SDS011;26021;45.640;11.302;2023-03-14T10:48:38;28.23;;;23.17;;
40314;SDS011;26021;45.640;11.302;2023-03-14T10:51:11;28.40;;;23.60;;
40314;SDS011;26021;45.640;11.302;2023-03-14T10:53:43;25.63;;;21.98;;
40314;SDS011;26021;45.640;11.302;2023-03-14T10:56:19;25.50;;;22.17;;
40314;SDS011;26021;45.640;11.302;2023-03-14T10:58:49;26.10;;;21.27;;
40314;SDS011;26021;45.640;11.302;2023-03-14T11:03:56;22.00;;;19.48;;
40314;SDS011;26021;45.640;11.302;2023-03-14T11:09:16;25.45;;;21.98;;
40314;SDS011;26021;45.640;11.302;2023-03-14T11:11:45;23.67;;;21.17;;
40314;SDS011;26021;45.640;11.302;2023-03-14T11:16:57;36.90;;;29.17;;
40314;SDS011;26021;45.640;11.302;2023-03-14T11:21:55;25.77;;;21.40;;
40314;SDS011;26021;45.640;11.302;2023-03-14T11:24:39;25.98;;;23.13;;
40314;SDS011;26021;45.640;11.302;2023-03-14T11:27:42;27.23;;;21.70;;
40314;SDS011;26021;45.640;11.302;2023-03-14T11:30:15;22.13;;;19.17;;
40314;SDS011;26021;45.640;11.302;2023-03-14T11:33:24;30.70;;;26.35;;
40314;SDS011;26021;45.640;11.302;2023-03-14T11:36:24;35.47;;;30.48;;
40314;SDS011;26021;45.640;11.302;2023-03-14T11:38:28;55.35;;;45.15;;
40314;SDS011;26021;45.640;11.302;2023-03-14T11:41:18;37.08;;;28.15;;
40314;SDS011;26021;45.640;11.302;2023-03-14T11:43:48;29.42;;;24.85;;
40314;SDS011;26021;45.640;11.302;2023-03-14T11:46:24;30.85;;;25.08;;
40314;SDS011;26021;45.640;11.302;2023-03-14T11:49:08;26.73;;;23.73;;
40314;SDS011;26021;45.640;11.302;2023-03-14T11:51:46;27.67;;;24.70;;
40314;SDS011;26021;45.640;11.302;2023-03-14T11:56:57;31.38;;;26.23;;
40314;SDS011;26021;45.640;11.302;2023-03-14T11:59:27;27.55;;;24.65;;
40314;SDS011;26021;45.640;11.302;2023-03-14T12:10:37;27.92;;;23.58;;
40314;SDS011;26021;45.640;11.302;2023-03-14T12:13:03;31.10;;;25.77;;
40314;SDS011;26021;45.640;11.302;2023-03-14T12:15:29;29.55;;;24.98;;
40314;SDS011;26021;45.640;11.302;2023-03-14T12:17:55;25.83;;;22.98;;
40314;SDS011;26021;45.640;11.302;2023-03-14T12:20:22;29.70;;;23.67;;
40314;SDS011;26021;45.640;11.302;2023-03-14T12:22:56;25.58;;;21.83;;
40314;SDS011;26021;45.640;11.302;2023-03-14T12:25:28;22.55;;;20.15;;
40314;SDS011;26021;45.640;11.302;2023-03-14T12:30:26;23.42;;;20.92;;
40314;SDS011;26021;45.640;11.302;2023-03-14T12:38:40;25.75;;;20.33;;
40314;SDS011;26021;45.640;11.302;2023-03-14T12:43:45;30.52;;;23.70;;
40314;SDS011;26021;45.640;11.302;2023-03-14T12:48:45;17.65;;;15.85;;
40314;SDS011;26021;45.640;11.302;2023-03-14T12:51:19;19.23;;;16.90;;
40314;SDS011;26021;45.640;11.302;2023-03-14T12:59:34;23.17;;;18.48;;
40314;SDS011;26021;45.640;11.302;2023-03-14T13:02:00;21.35;;;18.40;;
40314;SDS011;26021;45.640;11.302;2023-03-14T13:04:47;20.13;;;17.77;;
40314;SDS011;26021;45.640;11.302;2023-03-14T13:15:24;21.48;;;18.17;;
40314;SDS011;26021;45.640;11.302;2023-03-14T13:18:12;20.90;;;17.92;;
40314;SDS011;26021;45.640;11.302;2023-03-14T13:20:48;21.23;;;17.83;;
40314;SDS011;26021;45.640;11.302;2023-03-14T13:23:24;18.40;;;16.30;;
40314;SDS011;26021;45.640;11.302;2023-03-14T13:28:17;22.02;;;17.92;;
40314;SDS011;26021;45.640;11.302;2023-03-14T13:30:44;21.67;;;18.35;;
40314;SDS011;26021;45.640;11.302;2023-03-14T13:33:12;24.15;;;20.08;;
40314;SDS011;26021;45.640;11.302;2023-03-14T13:35:44;26.45;;;21.45;;
40314;SDS011;26021;45.640;11.302;2023-03-14T13:38:20;24.45;;;21.65;;
40314;SDS011;26021;45.640;11.302;2023-03-14T13:40:48;26.48;;;20.60;;
40314;SDS011;26021;45.640;11.302;2023-03-14T13:43:19;27.27;;;22.98;;
40314;SDS011;26021;45.640;11.302;2023-03-14T13:48:19;34.97;;;26.50;;
40314;SDS011;26021;45.640;11.302;2023-03-14T13:50:49;32.78;;;24.92;;
40314;SDS011;26021;45.640;11.302;2023-03-14T13:53:18;29.00;;;22.95;;
40314;SDS011;26021;45.640;11.302;2023-03-14T13:55:43;34.53;;;27.00;;
40314;SDS011;26021;45.640;11.302;2023-03-14T13:58:11;28.70;;;21.55;;
40314;SDS011;26021;45.640;11.302;2023-03-14T14:00:52;31.13;;;25.08;;
40314;SDS011;26021;45.640;11.302;2023-03-14T14:03:19;24.40;;;18.98;;
40314;SDS011;26021;45.640;11.302;2023-03-14T14:05:45;27.42;;;20.98;;
40314;SDS011;26021;45.640;11.302;2023-03-14T14:08:11;25.55;;;20.23;;
40314;SDS011;26021;45.640;11.302;2023-03-14T14:10:37;24.15;;;18.90;;
40314;SDS011;26021;45.640;11.302;2023-03-14T14:13:03;24.85;;;19.60;;
40314;SDS011;26021;45.640;11.302;2023-03-14T14:15:33;32.30;;;26.20;;
40314;SDS011;26021;45.640;11.302;2023-03-14T14:18:06;20.92;;;17.60;;
40314;SDS011;26021;45.640;11.302;2023-03-14T14:20:42;22.50;;;17.27;;
40314;SDS011;26021;45.640;11.302;2023-03-14T14:23:11;19.30;;;16.50;;
40314;SDS011;26021;45.640;11.302;2023-03-14T14:25:39;20.42;;;16.23;;
40314;SDS011;26021;45.640;11.302;2023-03-14T14:28:27;27.45;;;20.90;;
40314;SDS011;26021;45.640;11.302;2023-03-14T14:33:41;20.35;;;16.83;;
40314;SDS011;26021;45.640;11.302;2023-03-14T14:36:50;18.08;;;14.98;;
40314;SDS011;26021;45.640;11.302;2023-03-14T14:41:41;21.25;;;17.00;;
40314;SDS011;26021;45.640;11.302;2023-03-14T14:44:10;25.13;;;20.00;;
40314;SDS011;26021;45.640;11.302;2023-03-14T14:46:39;19.85;;;17.20;;
40314;SDS011;26021;45.640;11.302;2023-03-14T14:49:14;22.02;;;16.15;;
40314;SDS011;26021;45.640;11.302;2023-03-14T14:51:45;30.30;;;26.50;;
40314;SDS011;26021;45.640;11.302;2023-03-14T14:56:44;27.63;;;23.83;;
40314;SDS011;26021;45.640;11.302;2023-03-14T14:59:20;19.35;;;17.30;;
40314;SDS011;26021;45.640;11.302;2023-03-14T15:01:50;18.05;;;16.13;;
40314;SDS011;26021;45.640;11.302;2023-03-14T15:04:21;16.35;;;13.85;;
40314;SDS011;26021;45.640;11.302;2023-03-14T15:06:46;17.05;;;14.07;;
40314;SDS011;26021;45.640;11.302;2023-03-14T15:09:15;17.17;;;14.25;;
40314;SDS011;26021;45.640;11.302;2023-03-14T15:11:45;16.35;;;13.27;;
40314;SDS011;26021;45.640;11.302;2023-03-14T15:14:11;17.85;;;14.48;;
40314;SDS011;26021;45.640;11.302;2023-03-14T15:16:37;16.30;;;14.18;;
40314;SDS011;26021;45.640;11.302;2023-03-14T15:19:08;26.45;;;20.13;;
40314;SDS011;26021;45.640;11.302;2023-03-14T15:21:39;22.70;;;17.13;;
40314;SDS011;26021;45.640;11.302;2023-03-14T15:24:05;19.05;;;16.90;;
40314;SDS011;26021;45.640;11.302;2023-03-14T15:26:30;19.13;;;16.23;;